Time;durP1;ratioP1;P1;durP2;ratioP2;P2;SDS_P1;SDS_P2;PMS_P1;PMS_P2;Temp;Humidity;BMP_temperature;BMP_pressure;BME280_temperature;BME280_humidity;BME280_pressure;Samples;Min_cycle;Max_cycle;Signal;HPM_P1;HPM_P2
2022/12/24 00:01:55;;;;;;;7.72;2.25;;;;;;;-145.06;100.00;60892.56;5835928;23;20015;-91
2022/12/24 00:04:35;;;;;;;9.30;2.10;;;;;;;-145.06;100.00;60892.56;5816758;23;20007;-90
2022/12/24 00:07:14;;;;;;;8.57;2.28;;;;;;;-145.06;100.00;60892.56;5837656;23;20008;-90
2022/12/24 00:09:54;;;;;;;8.43;2.53;;;;;;;-145.06;100.00;60892.56;5816857;23;20011;-90
2022/12/24 00:12:33;;;;;;;9.85;2.55;;;;;;;-145.06;100.00;60892.56;5815132;23;20011;-91
2022/12/24 00:15:12;;;;;;;9.23;2.05;;;;;;;-145.06;100.00;60892.56;5818896;23;20426;-91
2022/12/24 00:17:51;;;;;;;4.33;1.67;;;;;;;-145.06;100.00;60892.56;5816195;23;20011;-91
2022/12/24 00:20:30;;;;;;;8.37;1.90;;;;;;;-145.06;100.00;60892.56;5814852;23;20007;-90
2022/12/24 00:23:10;;;;;;;9.25;2.20;;;;;;;-145.06;100.00;60892.56;5818012;23;20316;-90
2022/12/24 00:25:49;;;;;;;9.68;2.22;;;;;;;-145.06;100.00;60892.56;5817351;23;20363;-90
2022/12/24 00:28:29;;;;;;;5.82;1.70;;;;;;;-145.06;100.00;60892.56;5833878;23;20011;-90
2022/12/24 00:31:17;;;;;;;8.07;1.88;;;;;;;-145.06;100.00;60892.56;5816877;23;20015;-91
2022/12/24 00:33:59;;;;;;;9.98;2.40;;;;;;;-145.06;100.00;60892.56;5816700;23;20007;-91
2022/12/24 00:36:37;;;;;;;7.75;2.15;;;;;;;-145.06;100.00;60892.56;5814590;23;20035;-91
2022/12/24 00:39:17;;;;;;;8.30;1.83;;;;;;;-145.06;100.00;60892.56;5815192;23;20090;-90
2022/12/24 00:42:01;;;;;;;10.90;2.00;;;;;;;-145.06;100.00;60892.56;5817724;23;20456;-91
2022/12/24 00:44:40;;;;;;;6.65;1.90;;;;;;;-145.06;100.00;60892.56;5818081;23;20011;-91
2022/12/24 00:47:24;;;;;;;6.53;1.73;;;;;;;-145.06;100.00;60892.56;5814792;23;20011;-90
2022/12/24 00:50:04;;;;;;;11.02;2.45;;;;;;;-145.06;100.00;60892.56;5837496;23;20027;-90
2022/12/24 00:52:43;;;;;;;9.70;2.17;;;;;;;-145.06;100.00;60892.56;5838478;23;20011;-92
2022/12/24 00:55:26;;;;;;;10.73;2.42;;;;;;;-145.06;100.00;60892.56;5815887;23;20011;-91
2022/12/24 00:58:05;;;;;;;9.55;2.25;;;;;;;-145.06;100.00;60892.56;5817383;23;20003;-92
2022/12/24 01:00:44;;;;;;;10.32;2.20;;;;;;;-145.06;100.00;60892.56;5837725;23;20015;-91
2022/12/24 01:03:33;;;;;;;10.30;2.17;;;;;;;-145.06;100.00;60892.56;5816912;23;20011;-90
2022/12/24 01:06:19;;;;;;;8.60;2.20;;;;;;;-145.06;100.00;60892.56;5815716;23;20035;-92
2022/12/24 01:09:38;;;;;;;8.50;1.90;;;;;;;-145.06;100.00;60892.56;5818090;23;20008;-90
2022/12/24 01:12:19;;;;;;;5.97;1.93;;;;;;;-145.06;100.00;60892.56;5815611;23;20031;-91
2022/12/24 01:15:01;;;;;;;7.35;2.25;;;;;;;-145.06;100.00;60892.56;5816241;23;20236;-92
2022/12/24 01:17:41;;;;;;;9.38;2.10;;;;;;;-145.06;100.00;60892.56;5816377;23;20082;-91
2022/12/24 01:20:30;;;;;;;8.73;2.42;;;;;;;-145.06;100.00;60892.56;5826089;23;20090;-90
2022/12/24 01:23:14;;;;;;;5.05;1.70;;;;;;;-145.06;100.00;60892.56;5835515;23;20007;-91
2022/12/24 01:25:53;;;;;;;10.07;2.25;;;;;;;-145.06;100.00;60892.56;5817068;23;20008;-90
2022/12/24 01:28:40;;;;;;;7.37;2.10;;;;;;;-145.06;100.00;60892.56;5838107;23;20434;-91
2022/12/24 01:31:31;;;;;;;9.90;2.08;;;;;;;-145.06;100.00;60892.56;5836234;23;20450;-91
2022/12/24 01:34:10;;;;;;;6.85;1.88;;;;;;;-145.06;100.00;60892.56;5817316;23;20011;-92
2022/12/24 01:37:14;;;;;;;8.27;1.80;;;;;;;-145.06;100.00;60892.56;5816725;23;20315;-91
2022/12/24 01:43:23;;;;;;;8.40;2.17;;;;;;;-145.06;100.00;60892.56;5847881;23;20007;-92
2022/12/24 01:49:41;;;;;;;7.65;1.73;;;;;;;-145.06;100.00;60892.56;5847635;23;20003;-90
2022/12/24 01:52:38;;;;;;;6.82;1.63;;;;;;;-145.06;100.00;60892.56;5847741;23;20019;-92
2022/12/24 01:55:30;;;;;;;8.35;2.13;;;;;;;-145.06;100.00;60892.56;5819027;23;20042;-92
2022/12/24 01:58:11;;;;;;;13.30;2.58;;;;;;;-145.06;100.00;60892.56;5817806;23;20652;-89
2022/12/24 02:02:08;;;;;;;;;;;;;;;;;;;;;
2022/12/24 02:06:01;;;;;;;8.57;2.30;;;;;;;-145.06;100.00;60892.56;5820612;23;20007;-91
2022/12/24 02:08:55;;;;;;;5.40;1.48;;;;;;;-145.06;100.00;60892.56;5623478;24;20003;-91
2022/12/24 02:11:42;;;;;;;5.50;1.52;;;;;;;-145.06;100.00;60892.56;5702715;24;20010;-91
2022/12/24 02:14:31;;;;;;;6.47;1.60;;;;;;;-145.06;100.00;60892.56;5818773;23;20007;-91
2022/12/24 02:17:19;;;;;;;3.22;1.20;;;;;;;-145.06;100.00;60892.56;5816639;23;20011;-90
2022/12/24 02:20:35;;;;;;;5.30;1.40;;;;;;;-145.06;100.00;60892.56;5819004;23;20007;-92
2022/12/24 02:23:17;;;;;;;5.50;1.40;;;;;;;-145.06;100.00;60892.56;5816013;23;20439;-90
2022/12/24 02:26:22;;;;;;;5.30;1.48;;;;;;;-145.06;100.00;60892.56;5815995;23;20011;-91
2022/12/24 02:29:42;;;;;;;7.53;1.98;;;;;;;-145.06;100.00;60892.56;5817919;23;19999;-90
2022/12/24 02:32:35;;;;;;;7.30;1.48;;;;;;;-145.06;100.00;60892.56;5817707;23;20007;-90
2022/12/24 02:35:38;;;;;;;5.80;1.60;;;;;;;-145.06;100.00;60892.56;5815502;23;20423;-90
2022/12/24 02:38:34;;;;;;;5.45;1.45;;;;;;;-145.06;100.00;60892.56;5817858;23;20007;-90
2022/12/24 02:41:20;;;;;;;5.25;1.35;;;;;;;-145.06;100.00;60892.56;5818644;23;20011;-91
2022/12/24 02:44:05;;;;;;;5.80;1.50;;;;;;;-145.06;100.00;60892.56;5816580;23;20015;-91
2022/12/24 02:46:46;;;;;;;2.60;1.10;;;;;;;-145.06;100.00;60892.56;5838602;23;20004;-90
2022/12/24 02:49:25;;;;;;;7.40;1.88;;;;;;;-145.06;100.00;60892.56;5818265;23;20039;-90
2022/12/24 02:56:08;;;;;;;3.85;1.17;;;;;;;-145.06;100.00;60892.56;5850480;23;20063;-91
2022/12/24 02:58:56;;;;;;;4.15;1.30;;;;;;;-145.06;100.00;60892.56;5818477;23;20011;-91
2022/12/24 03:02:03;;;;;;;2.67;1.00;;;;;;;-145.06;100.00;60892.56;5819026;23;20019;-92
2022/12/24 03:04:49;;;;;;;2.90;1.13;;;;;;;-145.06;100.00;60892.56;5818973;23;20011;-90
2022/12/24 03:07:59;;;;;;;3.72;1.10;;;;;;;-145.06;100.00;60892.56;5820165;23;20004;-91
2022/12/24 03:10:51;;;;;;;4.25;1.10;;;;;;;-145.06;100.00;60892.56;5819479;23;20007;-91
2022/12/24 03:21:47;;;;;;;;;;;;;;;;;;;;;
2022/12/24 03:25:15;;;;;;;;;;;;;;;;;;;;;
2022/12/24 03:41:24;;;;;;;;;;;;;;;;;;;;;
2022/12/24 03:47:51;;;;;;;2.58;0.60;;;;;;;-145.06;100.00;60892.56;5904921;23;20002;-91
2022/12/24 03:51:18;;;;;;;1.73;0.65;;;;;;;-145.06;100.00;60892.56;5896763;23;20025;-92
2022/12/24 03:54:21;;;;;;;1.13;0.57;;;;;;;-145.06;100.00;60892.56;5897037;23;20006;-90
2022/12/24 04:01:29;;;;;;;1.75;0.45;;;;;;;-145.06;100.00;60892.56;5800142;23;20012;-91
2022/12/24 04:04:45;;;;;;;;;;;;;;;;;;;;;
2022/12/24 04:11:54;;;;;;;1.42;0.60;;;;;;;-145.06;100.00;60892.56;5740303;24;20401;-94
2022/12/24 04:22:08;;;;;;;4.68;0.68;;;;;;;-145.06;100.00;60892.56;5851943;23;20007;-93
2022/12/24 04:32:44;;;;;;;4.15;0.80;;;;;;;-145.06;100.00;60892.56;5848469;23;20574;-93
2022/12/24 04:42:53;;;;;;;3.45;1.35;;;;;;;-145.06;100.00;60892.56;5935072;23;20014;-92
2022/12/24 04:46:13;;;;;;;10.52;1.75;;;;;;;-145.06;100.00;60892.56;5912223;23;20010;-92
2022/12/24 05:00:03;;;;;;;5.13;1.50;;;;;;;-145.06;100.00;60892.56;5847042;23;20011;-91
2022/12/24 05:28:40;;;;;;;4.53;1.30;;;;;;;-145.06;100.00;60892.56;5903333;23;20006;-91
2022/12/24 05:31:21;;;;;;;2.33;1.03;;;;;;;-145.06;100.00;60892.56;5874461;23;20014;-90
2022/12/24 05:34:11;;;;;;;3.65;1.35;;;;;;;-145.06;100.00;60892.56;5872624;23;20006;-91
2022/12/24 05:39:53;;;;;;;3.25;1.15;;;;;;;-145.06;100.00;60892.56;5904811;23;20006;-91
2022/12/24 05:42:32;;;;;;;4.28;1.45;;;;;;;-145.06;100.00;60892.56;5872414;23;20010;-90
2022/12/24 05:45:15;;;;;;;4.03;1.50;;;;;;;-145.06;100.00;60892.56;5871598;23;20006;-91
2022/12/24 05:47:56;;;;;;;6.15;1.60;;;;;;;-145.06;100.00;60892.56;5873322;23;20007;-90
2022/12/24 05:51:03;;;;;;;;;;;;;;;;;;;;;
2022/12/24 05:53:43;;;;;;;4.18;1.45;;;;;;;-145.06;100.00;60892.56;5901687;23;20014;-91
2022/12/24 05:56:24;;;;;;;5.45;1.25;;;;;;;-145.06;100.00;60892.56;5873695;23;20010;-90
2022/12/24 05:59:05;;;;;;;3.05;1.13;;;;;;;-145.06;100.00;60892.56;5871239;23;20014;-91
2022/12/24 06:01:48;;;;;;;3.85;1.23;;;;;;;-145.06;100.00;60892.56;5871434;23;20011;-91
2022/12/24 06:04:27;;;;;;;7.50;1.65;;;;;;;-145.06;100.00;60892.56;5871184;23;20006;-90
2022/12/24 06:07:09;;;;;;;6.13;1.52;;;;;;;-145.06;100.00;60892.56;5872916;23;20034;-90
2022/12/24 06:09:49;;;;;;;4.55;1.10;;;;;;;-145.06;100.00;60892.56;5871446;23;20011;-90
2022/12/24 06:12:28;;;;;;;4.17;1.50;;;;;;;-145.06;100.00;60892.56;5870892;23;20011;-89
2022/12/24 06:15:51;;;;;;;;;;;;;;;;;;;;;
2022/12/24 06:18:45;;;;;;;7.80;1.38;;;;;;;-145.06;100.00;60892.56;5903304;23;20081;-90
2022/12/24 06:21:43;;;;;;;7.03;1.73;;;;;;;-145.06;100.00;60892.56;5869315;23;20006;-91
2022/12/24 06:28:34;;;;;;;6.55;1.52;;;;;;;-145.06;100.00;60892.56;5866869;23;20022;-93
2022/12/24 06:35:45;;;;;;;5.13;1.80;;;;;;;-145.06;100.00;60892.56;5814262;23;20016;-92
2022/12/24 06:43:09;;;;;;;3.85;1.35;;;;;;;-145.06;100.00;60892.56;5648858;24;20014;-91
2022/12/24 06:46:21;;;;;;;;;;;;;;;;;;;;;
2022/12/24 06:49:07;;;;;;;6.85;1.38;;;;;;;-145.06;100.00;60892.56;5655029;24;20014;-91
2022/12/24 06:52:13;;;;;;;6.30;1.35;;;;;;;-145.06;100.00;60892.56;5640647;24;20010;-92
2022/12/24 07:31:05;;;;;;;4.03;1.23;;;;;;;-145.06;100.00;60892.56;5873192;23;20050;-91
2022/12/24 07:34:26;;;;;;;7.03;1.50;;;;;;;-145.06;100.00;60892.56;5895873;23;20002;-89
2022/12/24 07:42:29;;;;;;;;;;;;;;;;;;;;;
2022/12/24 07:45:17;;;;;;;3.30;1.25;;;;;;;-145.06;100.00;60892.56;5899938;23;20006;-89
2022/12/24 07:48:19;;;;;;;4.03;1.15;;;;;;;-145.06;100.00;60892.56;5885475;23;20093;-88
2022/12/24 11:31:20;;;;;;;6.72;1.20;;;;;;;-145.06;100.00;60892.56;5890216;23;20022;-91
2022/12/24 11:34:52;;;;;;;5.28;1.35;;;;;;;-145.06;100.00;60892.56;5783893;23;20376;-90
2022/12/24 11:37:51;;;;;;;3.35;1.08;;;;;;;-145.06;100.00;60892.56;5801318;23;20008;-91
2022/12/24 19:25:54;;;;;;;3.08;0.80;;;;;;;-145.06;100.00;60892.56;5857773;23;20048;-92
2022/12/24 19:29:29;;;;;;;1.60;0.80;;;;;;;-145.06;100.00;60892.56;5860013;23;20580;-92
2022/12/24 19:53:39;;;;;;;;;;;;;;;;;;;;;
